Time;durP1;ratioP1;P1;durP2;ratioP2;P2;SDS_P1;SDS_P2;PMS_P1;PMS_P2;Temp;Humidity;BMP_temperature;BMP_pressure;BME280_temperature;BME280_humidity;BME280_pressure;Samples;Min_cycle;Max_cycle;Signal;HPM_P1;HPM_P2
2023/11/13 00:00:29;;;;;;;2.00;0.57;;;;;;;;;;5021879;28;20036;-76
2023/11/13 00:02:54;;;;;;;3.25;1.30;;;;;;;;;;5024179;28;20037;-76
2023/11/13 00:05:20;;;;;;;2.65;0.90;;;;;;;;;;5019248;28;20560;-76
2023/11/13 00:07:45;;;;;;;1.73;0.82;;;;;;;;;;5024148;28;20512;-76
2023/11/13 00:10:11;;;;;;;4.95;1.23;;;;;;;;;;5023681;28;20092;-76
2023/11/13 00:12:37;;;;;;;2.25;0.70;;;;;;;;;;5024442;28;20418;-76
2023/11/13 00:15:04;;;;;;;2.20;0.80;;;;;;;;;;5023082;28;20044;-76
2023/11/13 00:17:29;;;;;;;4.20;1.05;;;;;;;;;;5023286;28;20452;-76
2023/11/13 00:19:54;;;;;;;5.78;1.00;;;;;;;;;;5023163;28;20152;-76
2023/11/13 00:22:19;;;;;;;3.92;1.25;;;;;;;;;;5024209;28;20041;-76
2023/11/13 00:24:45;;;;;;;2.47;1.02;;;;;;;;;;5022866;28;20131;-76
2023/11/13 00:27:10;;;;;;;2.45;0.77;;;;;;;;;;5024189;28;20043;-76
2023/11/13 00:29:35;;;;;;;2.35;0.77;;;;;;;;;;5030661;28;20037;-76
2023/11/13 00:32:00;;;;;;;7.22;0.93;;;;;;;;;;5023458;28;20053;-76
2023/11/13 00:34:25;;;;;;;2.42;1.00;;;;;;;;;;5020538;28;20037;-76
2023/11/13 00:36:51;;;;;;;3.05;0.60;;;;;;;;;;5022494;28;20040;-76
2023/11/13 00:39:17;;;;;;;3.10;0.85;;;;;;;;;;5024367;28;20040;-77
2023/11/13 00:41:42;;;;;;;2.45;0.60;;;;;;;;;;5022261;28;20022;-76
2023/11/13 00:44:07;;;;;;;2.78;1.15;;;;;;;;;;5033155;28;20390;-77
2023/11/13 00:46:32;;;;;;;1.52;0.60;;;;;;;;;;5022065;28;20472;-76
2023/11/13 00:48:58;;;;;;;2.35;0.68;;;;;;;;;;5021729;28;20040;-77
2023/11/13 00:51:23;;;;;;;4.15;1.00;;;;;;;;;;5023154;28;20033;-76
2023/11/13 00:53:48;;;;;;;1.52;0.85;;;;;;;;;;5035596;28;20112;-76
2023/11/13 00:56:14;;;;;;;1.77;0.65;;;;;;;;;;5035979;28;20064;-76
2023/11/13 00:58:39;;;;;;;2.05;0.80;;;;;;;;;;5024618;28;20107;-76
2023/11/13 01:01:10;;;;;;;1.80;0.50;;;;;;;;;;5021113;28;20065;-76
2023/11/13 01:03:35;;;;;;;1.55;0.68;;;;;;;;;;5034468;28;20017;-77
2023/11/13 01:06:00;;;;;;;2.00;0.88;;;;;;;;;;5034496;28;20703;-77
2023/11/13 01:08:26;;;;;;;2.60;0.93;;;;;;;;;;5019760;28;20384;-77
2023/11/13 01:10:52;;;;;;;4.35;0.88;;;;;;;;;;5022926;28;20030;-76
2023/11/13 01:13:18;;;;;;;2.28;0.65;;;;;;;;;;5020775;28;20411;-77
2023/11/13 01:15:43;;;;;;;2.47;0.90;;;;;;;;;;5019670;28;20067;-77
2023/11/13 01:18:08;;;;;;;2.10;0.70;;;;;;;;;;5021454;28;20033;-76
2023/11/13 01:20:34;;;;;;;1.67;0.57;;;;;;;;;;5023522;28;20079;-76
2023/11/13 01:22:59;;;;;;;2.42;0.73;;;;;;;;;;5020471;28;20088;-76
2023/11/13 01:25:24;;;;;;;2.65;0.70;;;;;;;;;;5020342;28;20057;-76
2023/11/13 01:27:50;;;;;;;1.85;0.80;;;;;;;;;;5032493;28;20100;-76
2023/11/13 01:30:15;;;;;;;3.35;0.70;;;;;;;;;;5020693;28;20481;-76
2023/11/13 01:32:40;;;;;;;2.63;0.80;;;;;;;;;;5022698;28;20103;-76
2023/11/13 01:35:06;;;;;;;2.55;1.27;;;;;;;;;;5035374;28;20033;-76
2023/11/13 01:37:31;;;;;;;1.17;0.60;;;;;;;;;;5033639;28;20022;-76
2023/11/13 01:39:56;;;;;;;1.48;0.50;;;;;;;;;;5020448;28;20529;-76
2023/11/13 01:42:21;;;;;;;2.38;1.20;;;;;;;;;;5021843;28;20113;-76
2023/11/13 01:44:47;;;;;;;4.15;1.02;;;;;;;;;;5022104;28;20082;-76
2023/11/13 01:47:13;;;;;;;2.15;0.80;;;;;;;;;;5026181;28;20040;-76
2023/11/13 01:49:39;;;;;;;1.85;0.90;;;;;;;;;;5034998;28;20129;-76
2023/11/13 01:52:04;;;;;;;10.70;1.35;;;;;;;;;;5021500;28;20205;-76
2023/11/13 01:54:30;;;;;;;4.85;1.45;;;;;;;;;;5021980;28;20026;-76
2023/11/13 01:56:56;;;;;;;1.67;0.70;;;;;;;;;;5032154;28;20112;-76
2023/11/13 01:59:22;;;;;;;2.80;1.05;;;;;;;;;;5020960;28;20030;-76
2023/11/13 02:01:47;;;;;;;3.47;1.10;;;;;;;;;;5024895;28;20025;-76
2023/11/13 02:04:12;;;;;;;2.55;1.00;;;;;;;;;;5026719;28;20057;-76
2023/11/13 02:06:38;;;;;;;4.05;1.73;;;;;;;;;;5022876;28;20124;-76
2023/11/13 02:09:09;;;;;;;2.42;1.02;;;;;;;;;;5017998;28;20484;-76
2023/11/13 02:11:37;;;;;;;2.70;1.53;;;;;;;;;;5020918;28;20049;-76
2023/11/13 02:14:05;;;;;;;2.67;1.30;;;;;;;;;;5031727;28;20303;-76
2023/11/13 02:16:31;;;;;;;3.60;1.10;;;;;;;;;;5022724;28;20021;-76
2023/11/13 02:18:57;;;;;;;1.88;0.70;;;;;;;;;;5019654;28;20109;-77
2023/11/13 02:21:22;;;;;;;2.13;0.95;;;;;;;;;;5020482;28;20129;-76
2023/11/13 02:23:51;;;;;;;4.82;1.20;;;;;;;;;;5021776;28;20033;-76
2023/11/13 02:26:17;;;;;;;2.70;1.00;;;;;;;;;;5019587;28;20029;-77
2023/11/13 02:28:43;;;;;;;2.00;0.93;;;;;;;;;;5025505;28;20056;-76
2023/11/13 02:31:08;;;;;;;2.63;1.38;;;;;;;;;;5025890;28;20042;-76
2023/11/13 02:33:33;;;;;;;3.53;1.77;;;;;;;;;;5034263;28;20034;-76
2023/11/13 02:35:59;;;;;;;2.58;1.40;;;;;;;;;;5020760;28;20029;-76
2023/11/13 02:38:24;;;;;;;3.33;1.17;;;;;;;;;;5019444;28;20018;-76
2023/11/13 02:40:50;;;;;;;4.32;1.13;;;;;;;;;;5023870;28;20527;-76
2023/11/13 02:43:15;;;;;;;3.28;1.38;;;;;;;;;;5020758;28;20038;-76
2023/11/13 02:45:40;;;;;;;3.08;1.02;;;;;;;;;;5021201;28;20040;-76
2023/11/13 02:48:06;;;;;;;2.90;1.23;;;;;;;;;;5023095;28;20065;-76
2023/11/13 02:50:31;;;;;;;2.58;1.10;;;;;;;;;;5021540;28;20054;-76
2023/11/13 02:52:57;;;;;;;2.72;1.30;;;;;;;;;;5030253;28;20049;-76
2023/11/13 02:55:22;;;;;;;3.40;1.23;;;;;;;;;;5019359;28;20056;-76
2023/11/13 02:57:48;;;;;;;2.85;1.30;;;;;;;;;;5033350;28;20095;-76
2023/11/13 03:00:13;;;;;;;3.85;1.10;;;;;;;;;;5022291;28;20075;-77
2023/11/13 03:02:39;;;;;;;2.92;1.30;;;;;;;;;;5019249;28;20647;-76
2023/11/13 03:05:05;;;;;;;2.72;1.20;;;;;;;;;;5019827;28;20453;-77
2023/11/13 03:07:30;;;;;;;3.03;1.10;;;;;;;;;;5020916;28;20543;-76
2023/11/13 03:09:56;;;;;;;3.08;1.02;;;;;;;;;;5019682;28;20029;-77
2023/11/13 03:12:22;;;;;;;4.57;1.35;;;;;;;;;;5022089;28;20022;-77
2023/11/13 03:14:48;;;;;;;3.45;1.42;;;;;;;;;;5033665;28;20121;-77
2023/11/13 03:17:13;;;;;;;3.67;1.83;;;;;;;;;;5016111;28;20037;-77
2023/11/13 03:19:39;;;;;;;3.00;1.27;;;;;;;;;;5021354;28;20167;-77
2023/11/13 03:22:04;;;;;;;4.40;1.50;;;;;;;;;;5018980;28;20053;-77
2023/11/13 03:24:29;;;;;;;3.58;1.27;;;;;;;;;;5021869;28;20029;-77
2023/11/13 03:26:54;;;;;;;4.68;2.10;;;;;;;;;;5033069;28;20063;-76
2023/11/13 03:29:20;;;;;;;3.13;1.27;;;;;;;;;;5018926;28;20034;-77
2023/11/13 03:31:45;;;;;;;2.50;1.10;;;;;;;;;;5016970;28;20026;-77
2023/11/13 03:34:10;;;;;;;2.35;1.08;;;;;;;;;;5018004;28;20516;-77
2023/11/13 03:36:35;;;;;;;3.05;1.75;;;;;;;;;;5022519;28;20025;-77
2023/11/13 03:39:00;;;;;;;4.70;1.35;;;;;;;;;;5019030;28;20026;-76
2023/11/13 03:41:26;;;;;;;3.15;1.48;;;;;;;;;;5022412;28;20029;-76
2023/11/13 03:43:52;;;;;;;3.13;1.60;;;;;;;;;;5016051;28;20079;-76
2023/11/13 03:46:17;;;;;;;4.68;1.77;;;;;;;;;;5018772;28;20445;-77
2023/11/13 03:48:42;;;;;;;3.42;1.52;;;;;;;;;;5022169;28;20497;-76
2023/11/13 03:51:07;;;;;;;2.92;0.98;;;;;;;;;;5021550;28;20405;-76
2023/11/13 03:53:34;;;;;;;2.42;1.05;;;;;;;;;;5023210;28;20552;-76
2023/11/13 03:56:00;;;;;;;3.20;1.20;;;;;;;;;;5039734;28;20413;-76
2023/11/13 03:58:25;;;;;;;2.67;1.20;;;;;;;;;;5021998;28;20029;-76
2023/11/13 04:00:51;;;;;;;2.47;0.82;;;;;;;;;;5036587;28;20029;-76
2023/11/13 04:03:16;;;;;;;5.07;1.77;;;;;;;;;;5034098;28;20032;-76
2023/11/13 04:05:41;;;;;;;3.22;1.38;;;;;;;;;;5025114;28;20064;-76
2023/11/13 04:08:06;;;;;;;2.75;1.10;;;;;;;;;;5023112;28;20483;-76
2023/11/13 04:10:31;;;;;;;5.45;1.38;;;;;;;;;;5028141;28;20037;-76
2023/11/13 04:12:57;;;;;;;4.13;1.50;;;;;;;;;;5023946;28;20092;-76
2023/11/13 04:15:22;;;;;;;4.38;1.30;;;;;;;;;;5021347;28;20056;-76
2023/11/13 04:17:48;;;;;;;4.10;1.48;;;;;;;;;;5026893;28;20056;-76
2023/11/13 04:20:13;;;;;;;2.63;0.98;;;;;;;;;;5023196;28;20038;-76
2023/11/13 04:22:41;;;;;;;2.63;1.13;;;;;;;;;;5024073;28;20108;-76
2023/11/13 04:25:06;;;;;;;3.60;1.73;;;;;;;;;;5025009;28;20048;-76
2023/11/13 04:27:31;;;;;;;3.85;1.73;;;;;;;;;;5023856;28;20025;-76
2023/11/13 04:29:57;;;;;;;3.75;1.67;;;;;;;;;;5023268;28;20045;-76
2023/11/13 04:32:23;;;;;;;3.58;1.77;;;;;;;;;;5023611;28;20041;-76
2023/11/13 04:34:49;;;;;;;4.07;1.33;;;;;;;;;;5024731;28;20030;-76
2023/11/13 04:37:14;;;;;;;4.38;1.80;;;;;;;;;;5023859;28;20030;-75
2023/11/13 04:39:40;;;;;;;4.13;1.52;;;;;;;;;;5021502;28;20029;-76
2023/11/13 04:42:05;;;;;;;3.42;1.60;;;;;;;;;;5022591;28;20116;-75
2023/11/13 04:44:30;;;;;;;3.03;1.30;;;;;;;;;;5023719;28;20033;-76
2023/11/13 04:46:56;;;;;;;3.83;1.80;;;;;;;;;;5019511;28;20038;-76
2023/11/13 04:49:21;;;;;;;2.97;1.30;;;;;;;;;;5025954;28;20044;-76
2023/11/13 04:51:46;;;;;;;3.42;1.35;;;;;;;;;;5020711;28;20490;-76
2023/11/13 04:54:11;;;;;;;3.03;1.60;;;;;;;;;;5018764;28;20059;-77
2023/11/13 04:56:36;;;;;;;2.38;1.10;;;;;;;;;;5023771;28;20055;-76
2023/11/13 04:59:02;;;;;;;5.43;1.98;;;;;;;;;;5021590;28;20033;-76
2023/11/13 05:01:27;;;;;;;3.33;1.58;;;;;;;;;;5023239;28;20037;-76
2023/11/13 05:03:52;;;;;;;2.88;1.00;;;;;;;;;;5018085;28;20041;-76
2023/11/13 05:06:17;;;;;;;3.22;1.67;;;;;;;;;;5020738;28;20041;-76
2023/11/13 05:08:46;;;;;;;3.25;1.25;;;;;;;;;;5020619;28;20075;-77
2023/11/13 05:11:24;;;;;;;4.53;1.20;;;;;;;;;;5021444;28;20034;-76
2023/11/13 05:13:53;;;;;;;5.18;2.13;;;;;;;;;;5020713;28;20128;-76
2023/11/13 05:16:19;;;;;;;6.13;2.17;;;;;;;;;;5027403;28;20026;-76
2023/11/13 05:18:44;;;;;;;5.97;2.40;;;;;;;;;;5024274;28;20060;-76
2023/11/13 05:21:09;;;;;;;5.32;2.35;;;;;;;;;;5021666;28;20068;-76
2023/11/13 05:23:35;;;;;;;4.72;2.17;;;;;;;;;;5022329;28;20025;-76
2023/11/13 05:26:01;;;;;;;7.05;2.55;;;;;;;;;;5020293;28;20033;-77
2023/11/13 05:28:26;;;;;;;5.93;2.47;;;;;;;;;;5016297;28;20041;-76
2023/11/13 05:30:51;;;;;;;6.40;3.08;;;;;;;;;;5022798;28;20044;-76
2023/11/13 05:33:16;;;;;;;4.82;1.92;;;;;;;;;;5022330;28;20087;-76
2023/11/13 05:35:42;;;;;;;7.28;2.75;;;;;;;;;;5015024;28;20107;-76
2023/11/13 05:38:07;;;;;;;6.90;2.17;;;;;;;;;;5017177;28;20040;-76
2023/11/13 05:40:32;;;;;;;6.03;3.25;;;;;;;;;;5019011;28;20096;-76
2023/11/13 05:42:57;;;;;;;5.07;2.20;;;;;;;;;;5017947;28;20086;-75
2023/11/13 05:45:23;;;;;;;3.63;1.80;;;;;;;;;;5014688;28;20037;-76
2023/11/13 05:47:48;;;;;;;6.28;2.40;;;;;;;;;;5014501;28;20042;-76
2023/11/13 05:50:13;;;;;;;6.72;2.25;;;;;;;;;;5016436;28;20057;-76
2023/11/13 05:52:38;;;;;;;10.57;2.78;;;;;;;;;;5013094;28;20437;-76
2023/11/13 05:55:04;;;;;;;7.05;2.80;;;;;;;;;;5020550;28;20030;-76
2023/11/13 05:57:29;;;;;;;10.63;3.33;;;;;;;;;;5021619;28;20493;-77
2023/11/13 05:59:54;;;;;;;5.97;2.30;;;;;;;;;;5023113;28;20104;-77
2023/11/13 06:02:19;;;;;;;7.38;4.03;;;;;;;;;;5019430;28;20113;-76
2023/11/13 06:04:45;;;;;;;7.57;2.63;;;;;;;;;;5020381;28;20087;-77
2023/11/13 06:07:10;;;;;;;11.15;2.22;;;;;;;;;;5014235;28;20033;-76
2023/11/13 06:09:38;;;;;;;4.75;2.25;;;;;;;;;;5016521;28;20454;-76
2023/11/13 06:12:04;;;;;;;10.30;2.20;;;;;;;;;;5016832;28;20044;-77
2023/11/13 06:14:29;;;;;;;5.28;3.00;;;;;;;;;;5019759;28;20025;-76
2023/11/13 06:16:55;;;;;;;4.95;1.90;;;;;;;;;;5019068;28;20033;-76
2023/11/13 06:19:21;;;;;;;5.00;2.10;;;;;;;;;;5019455;28;20084;-76
2023/11/13 06:21:46;;;;;;;4.70;2.25;;;;;;;;;;5022331;28;20075;-76
2023/11/13 06:24:11;;;;;;;4.22;1.80;;;;;;;;;;5019484;28;20034;-76
2023/11/13 06:26:36;;;;;;;5.68;1.83;;;;;;;;;;5023169;28;20033;-76
2023/11/13 06:29:03;;;;;;;4.25;2.47;;;;;;;;;;5019501;28;20029;-76
2023/11/13 06:31:28;;;;;;;6.93;1.88;;;;;;;;;;5019245;28;20038;-76
2023/11/13 06:33:54;;;;;;;5.43;2.67;;;;;;;;;;5022386;28;20033;-76
2023/11/13 06:36:19;;;;;;;7.18;2.72;;;;;;;;;;5020523;28;20057;-76
2023/11/13 06:38:45;;;;;;;4.57;2.22;;;;;;;;;;5019882;28;20490;-77
2023/11/13 06:41:10;;;;;;;5.80;2.53;;;;;;;;;;5024383;28;20481;-77
2023/11/13 06:43:36;;;;;;;5.57;2.35;;;;;;;;;;5023155;28;20032;-77
2023/11/13 06:46:03;;;;;;;5.68;2.83;;;;;;;;;;5015691;28;20030;-76
2023/11/13 06:48:28;;;;;;;6.72;3.67;;;;;;;;;;5020293;28;20025;-76
2023/11/13 06:50:53;;;;;;;8.73;3.72;;;;;;;;;;5021695;28;20091;-76
2023/11/13 06:53:18;;;;;;;8.82;4.35;;;;;;;;;;5020343;28;20084;-76
2023/11/13 06:55:43;;;;;;;5.90;3.00;;;;;;;;;;5024420;28;20029;-77
2023/11/13 06:58:09;;;;;;;6.30;3.00;;;;;;;;;;5022811;28;20038;-76
2023/11/13 07:00:34;;;;;;;6.18;3.15;;;;;;;;;;5020597;28;20026;-76
2023/11/13 07:03:00;;;;;;;6.80;2.67;;;;;;;;;;5017622;28;20034;-76
2023/11/13 07:05:25;;;;;;;4.28;2.40;;;;;;;;;;5019123;28;20069;-76
2023/11/13 07:07:50;;;;;;;5.72;2.70;;;;;;;;;;5021483;28;20036;-76
2023/11/13 07:10:16;;;;;;;5.88;2.78;;;;;;;;;;5018427;28;20072;-76
2023/11/13 07:12:41;;;;;;;6.68;2.92;;;;;;;;;;5021534;28;20029;-76
2023/11/13 07:15:06;;;;;;;6.57;3.20;;;;;;;;;;5017785;28;20030;-76
2023/11/13 07:17:32;;;;;;;6.00;3.35;;;;;;;;;;5020149;28;20088;-76
2023/11/13 07:19:57;;;;;;;6.85;3.25;;;;;;;;;;5020316;28;20095;-76
2023/11/13 07:22:23;;;;;;;6.90;3.28;;;;;;;;;;5026818;28;20386;-76
2023/11/13 07:24:48;;;;;;;6.68;2.85;;;;;;;;;;5019060;28;20079;-76
2023/11/13 07:27:13;;;;;;;8.13;3.50;;;;;;;;;;5022979;28;20034;-76
2023/11/13 07:29:41;;;;;;;5.95;3.13;;;;;;;;;;5021921;28;20440;-77
2023/11/13 07:32:06;;;;;;;6.00;3.40;;;;;;;;;;5023103;28;20116;-76
2023/11/13 07:34:32;;;;;;;9.05;3.78;;;;;;;;;;5024581;28;20092;-77
2023/11/13 07:36:57;;;;;;;8.63;3.90;;;;;;;;;;5022891;28;20026;-76
2023/11/13 07:39:27;;;;;;;6.80;3.42;;;;;;;;;;5022721;28;20113;-76
2023/11/13 07:41:52;;;;;;;8.32;3.40;;;;;;;;;;5019536;28;20041;-76
2023/11/13 07:44:18;;;;;;;10.27;3.65;;;;;;;;;;5022555;28;20241;-76
2023/11/13 07:46:43;;;;;;;6.30;3.67;;;;;;;;;;5025820;28;20061;-76
2023/11/13 07:49:09;;;;;;;11.18;3.88;;;;;;;;;;5022537;28;20120;-76
2023/11/13 07:51:34;;;;;;;8.30;4.20;;;;;;;;;;5025503;28;20034;-77
2023/11/13 07:54:00;;;;;;;9.70;4.43;;;;;;;;;;5017111;28;20041;-76
2023/11/13 07:56:25;;;;;;;8.18;3.67;;;;;;;;;;5022690;28;20033;-76
2023/11/13 07:58:50;;;;;;;8.55;5.18;;;;;;;;;;5024773;28;20037;-76
2023/11/13 08:01:16;;;;;;;7.97;3.63;;;;;;;;;;5021253;28;20040;-76
2023/11/13 08:03:42;;;;;;;8.35;4.38;;;;;;;;;;5024452;28;20057;-76
2023/11/13 08:06:07;;;;;;;6.97;3.63;;;;;;;;;;5021647;28;20105;-77
2023/11/13 08:08:33;;;;;;;8.02;4.18;;;;;;;;;;5022238;28;20022;-76
2023/11/13 08:10:59;;;;;;;8.57;3.63;;;;;;;;;;5024631;28;20048;-76
2023/11/13 08:13:24;;;;;;;9.00;4.38;;;;;;;;;;5020733;28;20108;-76
2023/11/13 08:15:50;;;;;;;7.95;3.40;;;;;;;;;;5024208;28;20029;-76
2023/11/13 08:18:15;;;;;;;9.93;4.15;;;;;;;;;;5018720;28;20036;-76
2023/11/13 08:20:44;;;;;;;7.30;3.28;;;;;;;;;;5021698;28;20026;-76
2023/11/13 08:23:10;;;;;;;7.80;3.35;;;;;;;;;;5023005;28;20063;-76
2023/11/13 08:25:37;;;;;;;11.18;4.07;;;;;;;;;;5023883;28;20190;-76
2023/11/13 08:28:04;;;;;;;9.07;3.65;;;;;;;;;;5021606;28;20489;-76
2023/11/13 08:30:29;;;;;;;7.72;3.28;;;;;;;;;;5024592;28;20039;-76
2023/11/13 08:32:54;;;;;;;6.88;3.38;;;;;;;;;;5022281;28;20030;-76
2023/11/13 08:35:19;;;;;;;9.15;3.75;;;;;;;;;;5021137;28;20490;-76
2023/11/13 08:37:45;;;;;;;10.65;3.28;;;;;;;;;;5022334;28;20053;-76
2023/11/13 08:40:12;;;;;;;6.47;3.33;;;;;;;;;;5022517;28;20119;-76
2023/11/13 08:42:40;;;;;;;6.32;2.55;;;;;;;;;;5024832;28;20049;-76
2023/11/13 08:45:09;;;;;;;7.38;3.20;;;;;;;;;;5018513;28;20033;-76
2023/11/13 08:47:34;;;;;;;5.75;2.85;;;;;;;;;;5024677;28;20513;-76
2023/11/13 08:50:00;;;;;;;6.03;3.08;;;;;;;;;;5021169;28;20033;-76
2023/11/13 08:52:25;;;;;;;5.60;2.53;;;;;;;;;;5018501;28;20096;-76
2023/11/13 08:54:50;;;;;;;5.40;2.10;;;;;;;;;;5024090;28;20033;-76
2023/11/13 08:57:16;;;;;;;5.38;2.67;;;;;;;;;;5020692;28;20083;-76
2023/11/13 08:59:41;;;;;;;6.03;3.30;;;;;;;;;;5038660;28;20032;-76
2023/11/13 09:02:06;;;;;;;7.32;3.15;;;;;;;;;;5020781;28;20030;-76
2023/11/13 09:04:34;;;;;;;6.95;3.35;;;;;;;;;;5021574;28;20029;-76
2023/11/13 09:07:07;;;;;;;6.50;2.88;;;;;;;;;;5020724;28;20026;-76
2023/11/13 09:09:32;;;;;;;6.57;2.72;;;;;;;;;;5021280;28;20033;-76
2023/11/13 09:11:58;;;;;;;3.72;1.75;;;;;;;;;;5022040;28;20046;-76
2023/11/13 09:14:23;;;;;;;7.50;2.55;;;;;;;;;;5023253;28;20409;-76
2023/11/13 09:16:48;;;;;;;4.70;2.20;;;;;;;;;;5020688;28;20036;-76
2023/11/13 09:19:13;;;;;;;5.10;2.10;;;;;;;;;;5021671;28;20038;-76
2023/11/13 09:21:39;;;;;;;5.60;2.08;;;;;;;;;;5023612;28;20033;-76
2023/11/13 09:24:09;;;;;;;5.50;1.88;;;;;;;;;;5024166;28;20092;-76
2023/11/13 09:26:34;;;;;;;5.03;1.98;;;;;;;;;;5022321;28;20041;-76
2023/11/13 09:28:59;;;;;;;5.93;2.15;;;;;;;;;;5021089;28;20034;-77
2023/11/13 09:31:25;;;;;;;4.38;1.80;;;;;;;;;;5020342;28;20065;-76
2023/11/13 09:33:52;;;;;;;3.88;1.92;;;;;;;;;;5022074;28;20033;-76
2023/11/13 09:36:17;;;;;;;4.80;2.13;;;;;;;;;;5021854;28;20037;-77
2023/11/13 09:38:42;;;;;;;3.70;1.70;;;;;;;;;;5024498;28;20109;-77
2023/11/13 09:41:07;;;;;;;4.72;1.85;;;;;;;;;;5020638;28;20065;-77
2023/11/13 09:43:34;;;;;;;3.90;1.60;;;;;;;;;;5024026;28;20025;-77
2023/11/13 09:46:06;;;;;;;3.85;1.85;;;;;;;;;;5020455;28;20112;-77
2023/11/13 09:48:34;;;;;;;3.43;1.73;;;;;;;;;;5019300;28;20033;-77
2023/11/13 09:51:00;;;;;;;3.92;1.70;;;;;;;;;;5023989;28;20034;-76
2023/11/13 09:53:26;;;;;;;3.17;1.17;;;;;;;;;;5022066;28;20030;-76
2023/11/13 09:55:52;;;;;;;2.33;1.20;;;;;;;;;;5022490;28;20021;-77
2023/11/13 09:58:18;;;;;;;2.22;1.08;;;;;;;;;;5020433;28;20057;-77
2023/11/13 10:00:43;;;;;;;3.83;1.35;;;;;;;;;;5010007;28;20026;-77
2023/11/13 10:03:09;;;;;;;4.60;1.17;;;;;;;;;;5020173;28;20443;-77
2023/11/13 10:05:34;;;;;;;4.53;1.10;;;;;;;;;;5022349;28;20042;-77
2023/11/13 10:07:59;;;;;;;3.92;1.33;;;;;;;;;;5019789;28;20041;-77
2023/11/13 10:10:28;;;;;;;3.08;1.00;;;;;;;;;;5022726;28;20029;-76
2023/11/13 10:12:55;;;;;;;1.55;0.77;;;;;;;;;;5019647;28;20481;-77
2023/11/13 10:15:24;;;;;;;2.33;0.98;;;;;;;;;;5020214;28;20026;-77
2023/11/13 10:17:49;;;;;;;3.10;1.10;;;;;;;;;;5017635;28;20029;-76
2023/11/13 10:20:17;;;;;;;2.60;1.05;;;;;;;;;;5020514;28;20113;-77
2023/11/13 10:22:43;;;;;;;3.53;1.33;;;;;;;;;;5021556;28;20099;-77
2023/11/13 10:25:11;;;;;;;4.43;1.17;;;;;;;;;;5022322;28;20492;-77
2023/11/13 10:27:44;;;;;;;3.65;1.20;;;;;;;;;;5021224;28;20026;-77
2023/11/13 10:30:10;;;;;;;3.45;1.60;;;;;;;;;;5020749;28;20030;-75
2023/11/13 10:32:36;;;;;;;3.10;1.30;;;;;;;;;;5019430;28;20102;-77
2023/11/13 10:35:03;;;;;;;5.78;1.30;;;;;;;;;;5021650;28;20115;-77
2023/11/13 10:37:29;;;;;;;2.80;1.35;;;;;;;;;;5023087;28;20021;-77
2023/11/13 10:39:55;;;;;;;2.97;1.48;;;;;;;;;;5020689;28;20060;-78
2023/11/13 10:42:25;;;;;;;5.43;2.47;;;;;;;;;;5020807;28;20021;-77
2023/11/13 10:44:58;;;;;;;1.90;1.20;;;;;;;;;;5029889;28;20037;-77
2023/11/13 10:47:25;;;;;;;1.98;1.02;;;;;;;;;;5020754;28;20029;-76
2023/11/13 10:49:51;;;;;;;2.92;1.13;;;;;;;;;;5022231;28;20114;-77
2023/11/13 10:52:17;;;;;;;4.70;1.65;;;;;;;;;;5020088;28;20038;-77
2023/11/13 10:54:45;;;;;;;7.63;1.40;;;;;;;;;;5021231;28;20029;-77
2023/11/13 10:57:11;;;;;;;2.72;1.27;;;;;;;;;;5021311;28;20029;-78
2023/11/13 10:59:36;;;;;;;5.13;1.70;;;;;;;;;;5021487;28;20026;-78
2023/11/13 11:02:05;;;;;;;3.88;1.48;;;;;;;;;;5025188;28;20052;-77
2023/11/13 11:04:31;;;;;;;4.43;1.77;;;;;;;;;;5024443;28;20034;-77
2023/11/13 11:06:57;;;;;;;3.15;1.25;;;;;;;;;;5023255;28;20080;-78
2023/11/13 11:09:22;;;;;;;4.93;1.88;;;;;;;;;;5015643;28;20409;-77
2023/11/13 11:11:48;;;;;;;3.63;1.80;;;;;;;;;;5022899;28;20048;-76
2023/11/13 11:14:17;;;;;;;6.22;1.88;;;;;;;;;;5019920;28;20026;-77
2023/11/13 11:16:57;;;;;;;3.72;1.65;;;;;;;;;;5012827;28;20532;-77
2023/11/13 11:19:35;;;;;;;4.63;1.77;;;;;;;;;;5023761;28;20029;-77
2023/11/13 11:22:03;;;;;;;3.63;1.80;;;;;;;;;;5018951;28;20060;-77
2023/11/13 11:24:53;;;;;;;3.42;1.60;;;;;;;;;;5010217;28;20036;-76
2023/11/13 11:27:35;;;;;;;4.50;1.98;;;;;;;;;;4999189;28;20128;-77
2023/11/13 11:30:01;;;;;;;7.50;2.50;;;;;;;;;;5019241;28;20096;-77
2023/11/13 11:32:30;;;;;;;9.38;2.58;;;;;;;;;;5018150;28;20437;-76
2023/11/13 11:35:02;;;;;;;3.58;1.90;;;;;;;;;;5023139;28;20072;-77
2023/11/13 11:37:27;;;;;;;4.70;2.53;;;;;;;;;;5015534;28;20099;-77
2023/11/13 11:39:55;;;;;;;4.10;2.03;;;;;;;;;;5014762;28;20026;-77
2023/11/13 11:42:23;;;;;;;9.23;2.33;;;;;;;;;;5015131;28;20060;-77
2023/11/13 11:44:56;;;;;;;5.60;2.53;;;;;;;;;;5016944;28;20133;-77
2023/11/13 11:47:27;;;;;;;5.22;2.65;;;;;;;;;;5021864;28;20085;-77
2023/11/13 11:49:54;;;;;;;9.25;3.10;;;;;;;;;;5019168;28;20405;-77
2023/11/13 11:52:38;;;;;;;4.70;2.22;;;;;;;;;;5015150;28;20029;-77
2023/11/13 11:55:04;;;;;;;6.95;3.13;;;;;;;;;;5018199;28;20079;-76
2023/11/13 11:57:29;;;;;;;5.93;2.80;;;;;;;;;;5020582;28;20030;-77
2023/11/13 11:59:57;;;;;;;4.72;2.53;;;;;;;;;;5017056;28;20036;-78
2023/11/13 12:02:23;;;;;;;5.75;2.95;;;;;;;;;;5016417;28;20088;-77
2023/11/13 12:04:48;;;;;;;8.15;3.45;;;;;;;;;;5015088;28;20041;-78
2023/11/13 12:07:14;;;;;;;5.93;2.90;;;;;;;;;;5016811;28;20030;-78
2023/11/13 12:09:41;;;;;;;5.45;2.80;;;;;;;;;;5021744;28;20037;-78
2023/11/13 12:12:08;;;;;;;5.95;2.95;;;;;;;;;;5021923;28;20437;-77
2023/11/13 12:14:33;;;;;;;9.75;3.20;;;;;;;;;;5025987;28;20052;-77
2023/11/13 12:16:58;;;;;;;7.97;3.80;;;;;;;;;;5024800;28;20061;-77
2023/11/13 12:19:23;;;;;;;7.50;4.05;;;;;;;;;;5021881;28;20088;-77
2023/11/13 12:21:50;;;;;;;6.45;3.55;;;;;;;;;;5024506;28;20033;-78
2023/11/13 12:24:17;;;;;;;9.70;5.00;;;;;;;;;;5020328;28;20038;-77
2023/11/13 12:26:46;;;;;;;9.63;4.47;;;;;;;;;;5024369;28;20025;-78
2023/11/13 12:29:22;;;;;;;8.93;4.43;;;;;;;;;;5022927;28;20029;-77
2023/11/13 12:31:51;;;;;;;9.07;4.05;;;;;;;;;;5022113;28;20045;-77
2023/11/13 12:34:16;;;;;;;8.07;3.50;;;;;;;;;;5023230;28;20113;-77
2023/11/13 12:36:48;;;;;;;7.80;4.10;;;;;;;;;;5024589;28;20037;-78
2023/11/13 12:39:18;;;;;;;;;;;;;;;;;;5020811;28;20395;-77
2023/11/13 12:41:46;;;;;;;8.10;3.42;;;;;;;;;;5021285;28;20396;-78
2023/11/13 12:44:12;;;;;;;8.85;4.00;;;;;;;;;;5022606;28;20025;-77
2023/11/13 12:46:42;;;;;;;7.05;3.88;;;;;;;;;;5024375;28;20030;-78
2023/11/13 12:49:11;;;;;;;8.68;4.45;;;;;;;;;;5023901;28;20079;-77
2023/11/13 12:51:38;;;;;;;6.75;3.95;;;;;;;;;;5023765;28;20037;-78
2023/11/13 12:54:04;;;;;;;7.97;4.15;;;;;;;;;;5023080;28;20033;-77
2023/11/13 12:56:29;;;;;;;7.53;3.92;;;;;;;;;;5024825;28;20040;-77
2023/11/13 12:58:55;;;;;;;6.13;3.45;;;;;;;;;;5021570;28;20485;-78
2023/11/13 13:01:21;;;;;;;7.40;3.88;;;;;;;;;;5021066;28;20048;-78
2023/11/13 13:03:49;;;;;;;7.85;3.63;;;;;;;;;;5024731;28;20100;-78
2023/11/13 13:06:15;;;;;;;11.13;3.72;;;;;;;;;;5019930;28;20516;-78
2023/11/13 13:08:41;;;;;;;8.25;4.70;;;;;;;;;;5024099;28;20057;-78
2023/11/13 13:11:07;;;;;;;9.38;3.40;;;;;;;;;;5028887;28;20116;-78
2023/11/13 13:13:32;;;;;;;6.30;3.22;;;;;;;;;;5016556;28;20125;-78
2023/11/13 13:15:57;;;;;;;5.50;3.08;;;;;;;;;;5024834;28;20017;-77
2023/11/13 13:18:24;;;;;;;8.18;3.40;;;;;;;;;;5023361;28;20113;-78
2023/11/13 13:20:49;;;;;;;5.43;2.72;;;;;;;;;;5026357;28;20057;-78
2023/11/13 13:23:14;;;;;;;9.60;3.17;;;;;;;;;;5020552;28;20057;-78
2023/11/13 13:25:40;;;;;;;6.70;3.20;;;;;;;;;;5026597;28;20040;-77
2023/11/13 13:28:06;;;;;;;5.43;2.90;;;;;;;;;;5020467;28;20030;-78
2023/11/13 13:30:32;;;;;;;4.68;2.72;;;;;;;;;;5018295;28;20021;-78
2023/11/13 13:33:01;;;;;;;5.30;2.47;;;;;;;;;;5020285;28;20508;-78
2023/11/13 13:35:27;;;;;;;4.05;2.13;;;;;;;;;;5020734;28;20022;-78
2023/11/13 13:37:52;;;;;;;5.00;2.50;;;;;;;;;;5022979;28;20508;-78
2023/11/13 13:40:17;;;;;;;5.85;3.05;;;;;;;;;;5022088;28;20030;-78
2023/11/13 13:42:43;;;;;;;7.93;3.05;;;;;;;;;;5021287;28;20029;-78
2023/11/13 13:45:14;;;;;;;6.05;2.60;;;;;;;;;;5020619;28;20042;-78
2023/11/13 13:47:43;;;;;;;5.90;2.70;;;;;;;;;;5023299;28;20053;-78
2023/11/13 13:50:10;;;;;;;6.60;2.67;;;;;;;;;;5021007;28;20576;-78
2023/11/13 13:52:40;;;;;;;5.78;2.55;;;;;;;;;;5023977;28;20083;-78
2023/11/13 13:55:10;;;;;;;3.92;2.13;;;;;;;;;;5019714;28;20468;-78
2023/11/13 13:57:36;;;;;;;8.40;2.47;;;;;;;;;;5025367;28;20029;-78
2023/11/13 14:00:01;;;;;;;6.38;2.40;;;;;;;;;;5022380;28;20029;-78
2023/11/13 14:02:27;;;;;;;5.45;2.25;;;;;;;;;;5021379;28;20084;-78
2023/11/13 14:04:52;;;;;;;3.65;2.00;;;;;;;;;;5022737;28;20061;-78
2023/11/13 14:07:17;;;;;;;4.45;1.92;;;;;;;;;;5020435;28;20032;-78
2023/11/13 14:09:43;;;;;;;7.75;1.77;;;;;;;;;;5023556;28;20095;-77
2023/11/13 14:12:08;;;;;;;2.78;1.33;;;;;;;;;;5022437;28;20041;-78
2023/11/13 14:14:34;;;;;;;3.65;1.60;;;;;;;;;;5023106;28;20029;-78
2023/11/13 14:16:59;;;;;;;2.92;1.77;;;;;;;;;;5021359;28;20032;-78
2023/11/13 14:19:25;;;;;;;3.53;1.60;;;;;;;;;;5021312;28;20498;-77
2023/11/13 14:21:50;;;;;;;3.22;1.25;;;;;;;;;;5022503;28;20117;-78
2023/11/13 14:24:15;;;;;;;3.15;1.60;;;;;;;;;;5021130;28;20072;-78
2023/11/13 14:26:41;;;;;;;3.15;1.20;;;;;;;;;;5019503;28;20026;-77
2023/11/13 14:29:08;;;;;;;2.05;0.85;;;;;;;;;;5023645;28;20033;-76
2023/11/13 14:31:33;;;;;;;5.20;1.77;;;;;;;;;;5022080;28;20121;-78
2023/11/13 14:33:58;;;;;;;4.20;2.08;;;;;;;;;;5024028;28;20112;-78
2023/11/13 14:36:24;;;;;;;4.53;2.00;;;;;;;;;;5023166;28;20120;-78